createdAt,value
2019-03-21T00:00:05.196Z,10.59
2019-03-21T00:01:05.189Z,10.59
2019-03-21T00:02:05.161Z,10.61
2019-03-21T00:03:05.144Z,10.59
2019-03-21T00:04:05.154Z,10.51
2019-03-21T00:05:05.127Z,10.52
2019-03-21T00:06:05.135Z,10.55
2019-03-21T00:07:05.100Z,10.52
2019-03-21T00:08:05.094Z,10.45
2019-03-21T00:09:05.111Z,10.48
2019-03-21T00:10:05.080Z,10.53
2019-03-21T00:11:05.063Z,10.48
2019-03-21T00:12:05.068Z,10.56
2019-03-21T00:13:05.033Z,10.52
2019-03-21T00:14:07.301Z,10.51
2019-03-21T00:15:05.015Z,10.52
2019-03-21T00:16:04.997Z,10.47
2019-03-21T00:17:05.003Z,10.48
2019-03-21T00:18:04.980Z,10.51
2019-03-21T00:19:04.963Z,10.47
2019-03-21T00:20:04.970Z,10.52
2019-03-21T00:21:04.958Z,10.52
2019-03-21T00:22:04.938Z,10.56
2019-03-21T00:23:04.945Z,10.55
2019-03-21T00:24:04.908Z,10.45
2019-03-21T00:25:04.915Z,10.45
2019-03-21T00:26:04.890Z,10.44
2019-03-21T00:27:04.884Z,10.44
2019-03-21T00:28:04.870Z,10.44
2019-03-21T00:29:04.874Z,10.44
2019-03-21T00:30:04.880Z,10.44
2019-03-21T00:31:04.829Z,10.44
2019-03-21T00:32:04.823Z,10.47
2019-03-21T00:33:04.811Z,10.32
2019-03-21T00:34:04.809Z,10.42
2019-03-21T00:35:04.812Z,10.42
2019-03-21T00:36:04.773Z,10.45
2019-03-21T00:37:04.764Z,10.47
2019-03-21T00:38:04.749Z,10.40
2019-03-21T00:39:04.740Z,10.47
2019-03-21T00:40:04.749Z,10.45
2019-03-21T00:41:04.724Z,10.38
2019-03-21T00:42:04.701Z,10.38
2019-03-21T00:43:04.703Z,10.41
2019-03-21T00:44:04.699Z,10.47
2019-03-21T00:45:04.680Z,10.44
2019-03-21T00:46:04.681Z,10.38
2019-03-21T00:47:04.648Z,10.41
2019-03-21T00:48:04.692Z,10.40
2019-03-21T00:49:04.662Z,10.41
2019-03-21T00:50:04.644Z,10.45
2019-03-21T00:51:04.629Z,10.40
2019-03-21T00:52:04.621Z,10.42
2019-03-21T00:53:04.577Z,10.41
2019-03-21T00:54:04.623Z,10.45
2019-03-21T00:55:04.568Z,10.42
2019-03-21T00:56:04.680Z,10.42
2019-03-21T00:57:04.561Z,10.33
2019-03-21T00:58:04.540Z,10.45
2019-03-21T00:59:04.515Z,10.42
2019-03-21T01:00:04.555Z,10.38
2019-03-21T01:01:04.509Z,10.40
2019-03-21T01:02:04.487Z,10.42
2019-03-21T01:03:04.489Z,10.42
2019-03-21T01:04:04.494Z,10.34
2019-03-21T01:05:04.454Z,10.44
2019-03-21T01:06:04.919Z,10.44
2019-03-21T01:07:04.441Z,10.40
2019-03-21T01:08:04.425Z,10.45
2019-03-21T01:09:04.407Z,10.44
2019-03-21T01:10:04.392Z,10.41
2019-03-21T01:11:04.402Z,10.41
2019-03-21T01:12:04.387Z,10.45
2019-03-21T01:13:04.362Z,10.38
2019-03-21T01:14:04.358Z,10.42
2019-03-21T01:15:04.375Z,10.38
2019-03-21T01:16:04.362Z,10.41
2019-03-21T01:17:04.316Z,10.44
2019-03-21T01:18:04.299Z,10.45
2019-03-21T01:19:04.288Z,10.42
2019-03-21T01:20:04.283Z,10.40
2019-03-21T01:21:04.298Z,10.41
2019-03-21T01:22:04.257Z,10.42
2019-03-21T01:23:04.251Z,10.44
2019-03-21T01:24:04.235Z,10.42
2019-03-21T01:25:04.236Z,10.38
2019-03-21T01:26:04.241Z,10.41
2019-03-21T01:27:04.193Z,10.41
2019-03-21T01:28:04.193Z,10.45
2019-03-21T01:29:04.213Z,10.42
2019-03-21T01:30:04.166Z,10.44
2019-03-21T01:31:04.419Z,10.38
2019-03-21T01:32:04.187Z,10.47
2019-03-21T01:33:04.135Z,10.44
2019-03-21T01:34:04.122Z,10.45
2019-03-21T01:35:04.136Z,10.47
2019-03-21T01:36:04.104Z,10.41
2019-03-21T01:37:04.114Z,10.42
2019-03-21T01:38:04.071Z,10.45
2019-03-21T01:39:04.058Z,10.44
2019-03-21T01:40:04.065Z,10.51
2019-03-21T01:41:04.039Z,10.38
2019-03-21T01:42:04.049Z,10.45
2019-03-21T01:43:04.023Z,10.32
2019-03-21T01:44:04.003Z,10.48
2019-03-21T01:45:03.999Z,10.44
2019-03-21T01:46:04.005Z,10.33
2019-03-21T01:47:03.999Z,10.47
2019-03-21T01:48:03.979Z,10.38
2019-03-21T01:49:04.089Z,10.30
2019-03-21T01:50:03.941Z,10.40
2019-03-21T01:51:03.936Z,10.30
2019-03-21T01:52:03.934Z,10.29
2019-03-21T01:53:03.923Z,10.27
2019-03-21T01:54:03.895Z,10.32
2019-03-21T01:55:03.875Z,10.34
2019-03-21T01:56:03.868Z,10.27
2019-03-21T01:57:03.907Z,10.32
2019-03-21T01:58:03.843Z,10.32
2019-03-21T01:59:03.843Z,10.27
2019-03-21T02:00:03.827Z,10.26
2019-03-21T02:01:03.812Z,10.30
2019-03-21T02:02:03.818Z,10.34
2019-03-21T02:03:03.785Z,10.30
2019-03-21T02:04:03.786Z,10.30
2019-03-21T02:05:03.829Z,10.29
2019-03-21T02:06:03.761Z,10.27
2019-03-21T02:07:03.742Z,10.36
2019-03-21T02:08:03.922Z,10.27
2019-03-21T02:09:03.727Z,10.26
2019-03-21T02:10:03.733Z,10.44
2019-03-21T02:11:03.716Z,10.33
2019-03-21T02:12:03.683Z,10.27
2019-03-21T02:13:03.691Z,10.29
2019-03-21T02:14:03.682Z,10.32
2019-03-21T02:15:03.660Z,10.41
2019-03-21T02:16:03.654Z,10.36
2019-03-21T02:17:03.664Z,10.30
2019-03-21T02:18:03.660Z,10.44
2019-03-21T02:19:03.609Z,10.44
2019-03-21T02:20:03.594Z,10.42
2019-03-21T02:21:03.611Z,10.38
2019-03-21T02:22:03.591Z,10.36
2019-03-21T02:23:03.601Z,10.36
2019-03-21T02:24:03.554Z,10.42
2019-03-21T02:25:03.539Z,10.38
2019-03-21T02:26:03.538Z,10.41
2019-03-21T02:27:03.515Z,10.33
2019-03-21T02:28:03.552Z,10.38
2019-03-21T02:29:03.502Z,10.40
2019-03-21T02:30:03.496Z,10.45
2019-03-21T02:31:03.498Z,10.41
2019-03-21T02:32:03.474Z,10.25
2019-03-21T02:33:03.452Z,10.36
2019-03-21T02:34:03.475Z,10.36
2019-03-21T02:35:03.445Z,10.27
2019-03-21T02:36:03.420Z,10.36
2019-03-21T02:37:03.413Z,10.30
2019-03-21T02:38:03.396Z,10.29
2019-03-21T02:39:03.404Z,10.38
2019-03-21T02:40:03.375Z,10.29
2019-03-21T02:41:03.368Z,10.30
2019-03-21T02:42:03.345Z,10.32
2019-03-21T02:43:03.343Z,10.32
2019-03-21T02:44:03.348Z,10.29
2019-03-21T02:45:08.928Z,10.27
2019-03-21T02:46:04.340Z,10.26
2019-03-21T02:47:03.288Z,10.33
2019-03-21T02:48:03.292Z,10.34
2019-03-21T02:49:03.296Z,10.33
2019-03-21T02:50:03.298Z,10.30
2019-03-21T02:51:03.262Z,10.32
2019-03-21T02:52:04.417Z,10.32
2019-03-21T02:53:03.226Z,10.29
2019-03-21T02:54:03.247Z,10.30
2019-03-21T02:55:03.212Z,10.29
2019-03-21T02:56:03.209Z,10.29
2019-03-21T02:57:03.182Z,10.32
2019-03-21T02:58:03.177Z,10.32
2019-03-21T02:59:03.190Z,10.30
2019-03-21T03:00:03.163Z,10.20
2019-03-21T03:01:03.142Z,10.20
2019-03-21T03:02:03.133Z,10.23
2019-03-21T03:03:03.117Z,10.30
2019-03-21T03:04:03.122Z,10.27
2019-03-21T03:05:03.096Z,10.29
2019-03-21T03:06:03.107Z,10.33
2019-03-21T03:07:03.082Z,10.27
2019-03-21T03:08:03.058Z,10.22
2019-03-21T03:09:03.078Z,10.18
2019-03-21T03:10:03.036Z,10.23
2019-03-21T03:11:03.030Z,10.18
2019-03-21T03:12:03.029Z,10.22
2019-03-21T03:13:02.997Z,10.17
2019-03-21T03:14:04.662Z,10.22
2019-03-21T03:15:03.000Z,10.27
2019-03-21T03:16:02.964Z,10.23
2019-03-21T03:17:02.961Z,10.23
2019-03-21T03:18:02.973Z,10.30
2019-03-21T03:19:02.974Z,10.29
2019-03-21T03:20:02.940Z,10.26
2019-03-21T03:21:02.935Z,10.20
2019-03-21T03:22:02.930Z,10.20
2019-03-21T03:23:02.889Z,10.27
2019-03-21T03:24:02.903Z,10.30
2019-03-21T03:25:02.864Z,10.29
2019-03-21T03:26:02.873Z,10.27
2019-03-21T03:27:02.910Z,10.23
2019-03-21T03:28:02.828Z,10.27
2019-03-21T03:29:02.851Z,10.36
2019-03-21T03:30:02.849Z,10.36
2019-03-21T03:31:02.817Z,10.34
2019-03-21T03:32:02.797Z,10.30
2019-03-21T03:33:02.825Z,10.32
2019-03-21T03:34:02.820Z,10.33
2019-03-21T03:35:02.773Z,10.34
2019-03-21T03:36:02.754Z,10.33
2019-03-21T03:37:02.742Z,10.34
2019-03-21T03:38:02.734Z,10.29
2019-03-21T03:39:02.744Z,10.27
2019-03-21T03:40:02.693Z,10.33
2019-03-21T03:41:02.699Z,10.33
2019-03-21T03:42:02.673Z,10.27
2019-03-21T03:43:02.667Z,10.33
2019-03-21T03:44:02.685Z,10.26
2019-03-21T03:45:02.644Z,10.38
2019-03-21T03:46:02.652Z,10.32
2019-03-21T03:47:02.616Z,10.30
2019-03-21T03:48:02.609Z,10.42
2019-03-21T03:49:02.615Z,10.32
2019-03-21T03:50:02.584Z,10.33
2019-03-21T03:51:02.569Z,10.40
2019-03-21T03:52:02.568Z,10.38
2019-03-21T03:53:02.550Z,10.30
2019-03-21T03:54:02.553Z,10.30
2019-03-21T03:55:02.539Z,10.32
2019-03-21T03:56:02.521Z,10.32
2019-03-21T03:57:02.512Z,10.41
2019-03-21T03:58:02.516Z,10.32
2019-03-21T03:59:02.522Z,10.33
2019-03-21T04:00:02.482Z,10.30
2019-03-21T04:01:02.474Z,10.27
2019-03-21T04:02:02.446Z,10.27
2019-03-21T04:03:02.453Z,10.26
2019-03-21T04:04:02.456Z,10.27
2019-03-21T04:05:02.419Z,10.29
2019-03-21T04:06:02.421Z,10.33
2019-03-21T04:07:02.434Z,10.18
2019-03-21T04:08:02.405Z,10.26
2019-03-21T04:09:02.407Z,10.29
2019-03-21T04:10:02.368Z,10.29
2019-03-21T04:11:02.359Z,10.18
2019-03-21T04:12:02.375Z,10.23
2019-03-21T04:13:02.354Z,10.25
2019-03-21T04:14:02.365Z,10.17
2019-03-21T04:15:02.315Z,10.18
2019-03-21T04:16:02.297Z,10.25
2019-03-21T04:17:02.292Z,10.18
2019-03-21T04:18:02.288Z,10.29
2019-03-21T04:19:02.292Z,10.27
2019-03-21T04:20:02.276Z,10.36
2019-03-21T04:21:02.258Z,10.30
2019-03-21T04:22:02.236Z,10.29
2019-03-21T04:23:02.236Z,10.27
2019-03-21T04:24:02.231Z,10.27
2019-03-21T04:25:02.243Z,10.36
2019-03-21T04:26:02.197Z,10.25
2019-03-21T04:27:02.170Z,10.29
2019-03-21T04:28:02.269Z,10.27
2019-03-21T04:29:02.171Z,10.29
2019-03-21T04:30:02.145Z,10.26
2019-03-21T04:31:02.132Z,10.27
2019-03-21T04:32:02.157Z,10.33
2019-03-21T04:33:02.112Z,10.38
2019-03-21T04:34:02.115Z,10.26
2019-03-21T04:35:02.116Z,10.30
2019-03-21T04:36:02.099Z,10.38
2019-03-21T04:37:02.069Z,10.44
2019-03-21T04:38:02.058Z,10.34
2019-03-21T04:39:02.275Z,10.42
2019-03-21T04:40:02.034Z,10.45
2019-03-21T04:41:02.034Z,10.55
2019-03-21T04:42:02.029Z,10.47
2019-03-21T04:43:02.006Z,10.51
2019-03-21T04:44:02.021Z,10.53
2019-03-21T04:45:01.978Z,10.45
2019-03-21T04:46:03.725Z,10.36
2019-03-21T04:47:01.961Z,10.41
2019-03-21T04:48:01.967Z,10.34
2019-03-21T04:49:02.006Z,10.38
2019-03-21T04:50:01.983Z,10.36
2019-03-21T04:51:01.923Z,10.42
2019-03-21T04:52:01.918Z,10.44
2019-03-21T04:53:01.884Z,10.51
2019-03-21T04:54:01.934Z,10.52
2019-03-21T04:55:01.891Z,10.47
2019-03-21T04:56:01.866Z,10.52
2019-03-21T04:57:01.855Z,10.47
2019-03-21T04:58:01.838Z,10.52
2019-03-21T04:59:01.857Z,10.52
2019-03-21T05:00:03.684Z,10.51
2019-03-21T05:01:02.054Z,10.48
2019-03-21T05:02:01.774Z,10.51
2019-03-21T05:03:01.788Z,10.52
2019-03-21T05:04:01.952Z,10.52
2019-03-21T05:05:01.771Z,10.48
2019-03-21T05:06:01.738Z,10.45
2019-03-21T05:07:01.759Z,10.45
2019-03-21T05:08:01.734Z,10.44
2019-03-21T05:09:01.715Z,10.45
2019-03-21T05:10:01.825Z,10.38
2019-03-21T05:11:01.816Z,10.29
2019-03-21T05:12:01.683Z,10.45
2019-03-21T05:13:01.652Z,10.47
2019-03-21T05:14:01.686Z,10.42
2019-03-21T05:15:01.660Z,10.48
2019-03-21T05:16:01.621Z,10.42
2019-03-21T05:17:01.623Z,10.51
2019-03-21T05:18:01.623Z,10.53
2019-03-21T05:19:01.588Z,10.52
2019-03-21T05:20:01.620Z,10.53
2019-03-21T05:21:01.573Z,10.40
2019-03-21T05:22:01.560Z,10.42
2019-03-21T05:23:01.565Z,10.41
2019-03-21T05:24:01.533Z,10.42
2019-03-21T05:25:01.537Z,10.47
2019-03-21T05:26:03.928Z,10.52
2019-03-21T05:27:01.502Z,10.47
2019-03-21T05:28:01.500Z,10.52
2019-03-21T05:29:01.496Z,10.48
2019-03-21T05:30:01.513Z,10.51
2019-03-21T05:31:01.454Z,10.64
2019-03-21T05:32:03.666Z,10.48
2019-03-21T05:33:01.438Z,10.51
2019-03-21T05:34:01.436Z,10.55
2019-03-21T05:35:01.448Z,10.70
2019-03-21T05:36:01.394Z,10.60
2019-03-21T05:37:01.409Z,10.61
2019-03-21T05:38:01.391Z,10.64
2019-03-21T05:39:01.367Z,10.48
2019-03-21T05:40:01.400Z,10.51
2019-03-21T05:41:01.361Z,10.59
2019-03-21T05:42:01.341Z,10.45
2019-03-21T05:43:01.339Z,10.53
2019-03-21T05:44:01.329Z,10.51
2019-03-21T05:45:01.513Z,10.61
2019-03-21T05:46:01.296Z,10.60
2019-03-21T05:47:01.295Z,10.47
2019-03-21T05:48:01.266Z,10.68
2019-03-21T05:49:01.265Z,10.70
2019-03-21T05:50:01.294Z,10.55
2019-03-21T05:51:01.238Z,10.59
2019-03-21T05:52:01.221Z,10.52
2019-03-21T05:53:01.201Z,10.55
2019-03-21T05:54:01.206Z,10.48
2019-03-21T05:55:01.207Z,10.55
2019-03-21T05:56:01.192Z,10.51
2019-03-21T05:57:01.185Z,10.59
2019-03-21T05:58:01.149Z,10.47
2019-03-21T05:59:01.142Z,10.59
2019-03-21T06:00:01.156Z,10.48
2019-03-21T06:01:01.108Z,10.56
2019-03-21T06:02:01.107Z,10.59
2019-03-21T06:03:01.116Z,10.66
2019-03-21T06:04:01.105Z,10.63
2019-03-21T06:05:01.261Z,10.61
2019-03-21T06:06:01.088Z,10.71
2019-03-21T06:07:01.035Z,10.71
2019-03-21T06:08:01.039Z,10.67
2019-03-21T06:09:01.019Z,10.76
2019-03-21T06:10:01.004Z,10.71
2019-03-21T06:11:01.018Z,10.74
2019-03-21T06:12:00.980Z,10.78
2019-03-21T06:13:00.981Z,10.73
2019-03-21T06:14:00.987Z,10.81
2019-03-21T06:15:00.958Z,10.79
2019-03-21T06:16:01.151Z,10.71
2019-03-21T06:17:00.947Z,10.70
2019-03-21T06:18:00.915Z,10.74
2019-03-21T06:19:00.921Z,10.76
2019-03-21T06:20:03.763Z,10.76
2019-03-21T06:21:00.916Z,10.85
2019-03-21T06:22:00.873Z,10.78
2019-03-21T06:23:00.896Z,10.78
2019-03-21T06:24:00.852Z,10.85
2019-03-21T06:25:00.856Z,10.81
2019-03-21T06:26:00.857Z,10.79
2019-03-21T06:27:00.864Z,10.82
2019-03-21T06:28:00.827Z,10.84
2019-03-21T06:29:00.810Z,10.85
2019-03-21T06:30:00.809Z,10.76
2019-03-21T06:31:00.814Z,10.85
2019-03-21T06:32:00.777Z,10.89
2019-03-21T06:33:00.768Z,10.94
2019-03-21T06:34:00.746Z,10.86
2019-03-21T06:35:00.722Z,10.81
2019-03-21T06:36:00.793Z,10.81
2019-03-21T06:37:00.709Z,10.85
2019-03-21T06:38:00.692Z,10.76
2019-03-21T06:39:00.687Z,10.78
2019-03-21T06:40:00.681Z,10.74
2019-03-21T06:41:00.691Z,10.73
2019-03-21T06:42:00.644Z,10.74
2019-03-21T06:43:00.632Z,10.79
2019-03-21T06:44:00.626Z,10.78
2019-03-21T06:45:00.619Z,10.67
2019-03-21T06:46:00.622Z,10.68
2019-03-21T06:47:00.586Z,10.74
2019-03-21T06:48:00.567Z,10.81
2019-03-21T06:49:00.568Z,10.82
2019-03-21T06:50:00.549Z,10.81
2019-03-21T06:51:00.547Z,10.74
2019-03-21T06:52:00.551Z,10.73
2019-03-21T06:53:03.128Z,10.78
2019-03-21T06:54:00.527Z,10.74
2019-03-21T06:55:00.505Z,10.82
2019-03-21T06:56:00.477Z,10.78
2019-03-21T06:57:02.508Z,10.78
2019-03-21T06:58:00.457Z,10.84
2019-03-21T06:59:00.460Z,10.82
2019-03-21T07:00:00.442Z,10.82
2019-03-21T07:01:00.435Z,10.82
2019-03-21T07:02:00.445Z,10.79
2019-03-21T07:03:00.408Z,10.81
2019-03-21T07:04:06.966Z,10.94
2019-03-21T07:05:01.387Z,10.91
2019-03-21T07:06:00.367Z,10.94
2019-03-21T07:07:08.143Z,10.94
2019-03-21T07:08:01.350Z,10.85
2019-03-21T07:09:00.346Z,10.86
2019-03-21T07:10:00.368Z,10.97
2019-03-21T07:11:00.309Z,10.92
2019-03-21T07:12:00.335Z,10.92
2019-03-21T07:13:00.284Z,11.03
2019-03-21T07:14:00.284Z,11.06
2019-03-21T07:15:00.380Z,11.07
2019-03-21T07:16:00.261Z,11.07
2019-03-21T07:17:00.867Z,11.09
2019-03-21T07:18:00.262Z,11.06
2019-03-21T07:19:00.216Z,11.00
2019-03-21T07:20:00.361Z,11.06
2019-03-21T07:21:01.186Z,11.07
2019-03-21T07:22:00.182Z,11.04
2019-03-21T07:23:00.200Z,11.06
2019-03-21T07:24:00.213Z,11.07
2019-03-21T07:25:00.485Z,11.06
2019-03-21T07:26:00.150Z,11.09
2019-03-21T07:27:00.167Z,11.09
2019-03-21T07:28:00.129Z,11.17
2019-03-21T07:29:00.100Z,11.18
2019-03-21T07:30:00.141Z,11.09
2019-03-21T07:31:00.085Z,11.19
2019-03-21T07:32:00.087Z,11.22
2019-03-21T07:33:00.071Z,11.21
2019-03-21T07:34:00.077Z,11.22
2019-03-21T07:35:00.044Z,11.25
2019-03-21T07:36:00.029Z,11.21
2019-03-21T07:37:00.023Z,11.27
2019-03-21T07:38:00.018Z,11.14
2019-03-21T07:39:00.025Z,11.17
2019-03-21T07:39:59.985Z,11.10
2019-03-21T07:41:00.194Z,11.10
2019-03-21T07:42:01.136Z,11.04
2019-03-21T07:42:59.971Z,11.22
2019-03-21T07:43:59.985Z,11.18
2019-03-21T07:44:59.939Z,11.06
2019-03-21T07:45:59.917Z,11.18
2019-03-21T07:47:11.828Z,11.21
2019-03-21T07:48:00.907Z,11.19
2019-03-21T07:48:59.897Z,11.19
2019-03-21T07:49:59.944Z,11.22
2019-03-21T07:50:59.853Z,11.19
2019-03-21T07:51:59.853Z,11.10
2019-03-21T07:52:59.837Z,11.11
2019-03-21T07:53:59.826Z,11.10
2019-03-21T07:54:59.833Z,11.10
2019-03-21T07:55:59.811Z,11.11
2019-03-21T07:56:59.811Z,11.10
2019-03-21T07:57:59.794Z,11.07
2019-03-21T07:58:59.773Z,11.09
2019-03-21T07:59:59.773Z,11.09
2019-03-21T08:00:59.745Z,10.94
2019-03-21T08:01:59.739Z,11.00
2019-03-21T08:02:59.733Z,10.99
2019-03-21T08:03:59.709Z,11.00
2019-03-21T08:04:59.728Z,11.00
2019-03-21T08:05:59.710Z,11.00
2019-03-21T08:06:59.771Z,11.02
2019-03-21T08:07:59.670Z,11.03
2019-03-21T08:08:59.655Z,11.09
2019-03-21T08:09:59.677Z,11.10
2019-03-21T08:10:59.638Z,11.11
2019-03-21T08:11:59.648Z,11.22
2019-03-21T08:12:59.608Z,11.21
2019-03-21T08:13:59.600Z,11.28
2019-03-21T08:14:59.600Z,11.27
2019-03-21T08:15:59.587Z,11.27
2019-03-21T08:16:59.571Z,11.29
2019-03-21T08:17:59.596Z,11.21
2019-03-21T08:18:59.806Z,11.27
2019-03-21T08:19:59.555Z,11.15
2019-03-21T08:21:00.181Z,11.25
2019-03-21T08:21:59.518Z,11.15
2019-03-21T08:22:59.519Z,11.10
2019-03-21T08:23:59.537Z,11.10
2019-03-21T08:24:59.499Z,11.10
2019-03-21T08:25:59.469Z,11.14
2019-03-21T08:26:59.451Z,11.03
2019-03-21T08:27:59.452Z,11.07
2019-03-21T08:28:59.458Z,11.07
2019-03-21T08:29:59.467Z,11.11
2019-03-21T08:30:59.401Z,11.15
2019-03-21T08:31:59.405Z,11.10
2019-03-21T08:32:59.395Z,11.17
2019-03-21T08:33:59.385Z,11.03
2019-03-21T08:34:59.395Z,11.06
2019-03-21T08:35:59.350Z,11.09
2019-03-21T08:36:59.333Z,11.06
2019-03-21T08:37:59.329Z,11.06
2019-03-21T08:38:59.330Z,11.00
2019-03-21T08:39:59.326Z,11.10
2019-03-21T08:40:59.290Z,10.99
2019-03-21T08:41:59.281Z,11.00
2019-03-21T08:42:59.278Z,10.96
2019-03-21T08:43:59.292Z,10.96
2019-03-21T08:44:59.270Z,11.04
2019-03-21T08:45:59.269Z,11.06
2019-03-21T08:46:59.220Z,11.10
2019-03-21T08:47:59.216Z,11.19
2019-03-21T08:48:59.531Z,11.22
2019-03-21T08:49:59.202Z,11.10
2019-03-21T08:51:07.812Z,11.11
2019-03-21T08:52:00.165Z,11.22
2019-03-21T08:52:59.149Z,11.17
2019-03-21T08:53:59.182Z,11.19
2019-03-21T08:54:59.139Z,11.15
2019-03-21T08:55:59.131Z,11.17
2019-03-21T08:56:59.135Z,11.03
2019-03-21T08:57:59.098Z,11.09
2019-03-21T08:58:59.946Z,11.09
2019-03-21T08:59:59.086Z,11.18
2019-03-21T09:00:59.087Z,11.18
2019-03-21T09:01:59.066Z,11.14
2019-03-21T09:02:59.053Z,11.15
2019-03-21T09:03:59.033Z,11.15
2019-03-21T09:04:59.922Z,11.14
2019-03-21T09:05:59.032Z,11.19
2019-03-21T09:06:59.003Z,11.10
2019-03-21T09:07:59.008Z,11.22
2019-03-21T09:08:58.988Z,11.27
2019-03-21T09:09:58.960Z,11.29
2019-03-21T09:10:58.968Z,11.33
2019-03-21T09:11:58.949Z,11.28
2019-03-21T09:12:58.941Z,11.37
2019-03-21T09:13:58.923Z,11.33
2019-03-21T09:14:58.908Z,11.32
2019-03-21T09:15:58.920Z,11.39
2019-03-21T09:16:58.881Z,11.37
2019-03-21T09:17:58.890Z,11.39
2019-03-21T09:18:58.886Z,11.39
2019-03-21T09:19:59.023Z,11.39
2019-03-21T09:20:58.902Z,11.47
2019-03-21T09:21:58.933Z,11.44
2019-03-21T09:22:58.813Z,11.60
2019-03-21T09:23:58.811Z,11.64
2019-03-21T09:24:58.822Z,11.61
2019-03-21T09:25:58.777Z,11.55
2019-03-21T09:26:58.811Z,11.61
2019-03-21T09:28:02.763Z,11.65
2019-03-21T09:28:58.749Z,11.69
2019-03-21T09:29:58.792Z,11.60
2019-03-21T09:30:58.735Z,11.67
2019-03-21T09:31:58.921Z,11.65
2019-03-21T09:32:58.711Z,11.72
2019-03-21T09:33:58.703Z,11.70
2019-03-21T09:34:58.701Z,11.75
2019-03-21T09:35:58.700Z,11.76
2019-03-21T09:36:58.717Z,11.64
2019-03-21T09:37:58.659Z,11.55
2019-03-21T09:38:58.640Z,11.52
2019-03-21T09:39:58.626Z,11.60
2019-03-21T09:40:58.639Z,11.60
2019-03-21T09:41:58.654Z,11.62
2019-03-21T09:42:58.615Z,11.52
2019-03-21T09:43:58.592Z,11.54
2019-03-21T09:44:58.597Z,11.61
2019-03-21T09:45:58.571Z,11.69
2019-03-21T09:46:58.586Z,11.75
2019-03-21T09:47:58.605Z,11.85
2019-03-21T09:48:58.527Z,11.85
2019-03-21T09:49:59.383Z,11.90
2019-03-21T09:50:58.515Z,11.96
2019-03-21T09:51:58.526Z,11.88
2019-03-21T09:52:58.517Z,11.86
2019-03-21T09:54:09.228Z,11.88
2019-03-21T09:54:59.488Z,11.91
2019-03-21T09:55:58.463Z,11.91
2019-03-21T09:56:58.473Z,11.95
2019-03-21T09:57:58.441Z,11.98
2019-03-21T09:58:58.439Z,11.95
2019-03-21T09:59:58.439Z,11.99
2019-03-21T10:00:58.396Z,11.94
2019-03-21T10:01:58.436Z,11.94
2019-03-21T10:02:58.431Z,11.91
2019-03-21T10:03:58.383Z,11.80
2019-03-21T10:04:58.367Z,11.75
2019-03-21T10:05:58.367Z,11.90
2019-03-21T10:06:58.321Z,11.94
2019-03-21T10:07:59.547Z,11.95
2019-03-21T10:08:58.322Z,11.86
2019-03-21T10:09:58.302Z,11.95
2019-03-21T10:10:58.293Z,11.85
2019-03-21T10:11:58.268Z,11.90
2019-03-21T10:12:58.273Z,11.85
2019-03-21T10:13:58.261Z,11.76
2019-03-21T10:14:58.257Z,11.75
2019-03-21T10:15:58.227Z,11.70
2019-03-21T10:16:58.229Z,11.67
2019-03-21T10:17:58.240Z,11.80
2019-03-21T10:18:58.207Z,11.78
2019-03-21T10:19:58.189Z,11.86
2019-03-21T10:20:58.166Z,11.82
2019-03-21T10:21:58.268Z,11.88
2019-03-21T10:22:58.163Z,11.91
2019-03-21T10:23:58.143Z,11.94
2019-03-21T10:24:58.130Z,11.83
2019-03-21T10:25:58.137Z,11.90
2019-03-21T10:26:58.104Z,11.96
2019-03-21T10:27:58.105Z,11.94
2019-03-21T10:28:58.116Z,11.96
2019-03-21T10:29:58.073Z,11.99
2019-03-21T10:30:58.071Z,11.91
2019-03-21T10:31:58.071Z,11.86
2019-03-21T10:32:58.034Z,11.86
2019-03-21T10:33:58.045Z,11.82
2019-03-21T10:34:58.008Z,11.85
2019-03-21T10:35:58.011Z,11.76
2019-03-21T10:36:58.009Z,11.85
2019-03-21T10:37:58.047Z,11.94
2019-03-21T10:38:57.980Z,11.90
2019-03-21T10:39:58.029Z,11.90
2019-03-21T10:40:57.937Z,12.07
2019-03-21T10:41:57.936Z,12.01
2019-03-21T10:42:57.948Z,12.01
2019-03-21T10:43:57.909Z,12.10
2019-03-21T10:44:57.957Z,12.09
2019-03-21T10:45:57.929Z,12.09
2019-03-21T10:46:57.879Z,12.13
2019-03-21T10:47:57.864Z,12.16
2019-03-21T10:48:57.880Z,12.12
2019-03-21T10:49:57.845Z,12.17
2019-03-21T10:50:57.848Z,12.07
2019-03-21T10:51:57.816Z,12.05
2019-03-21T10:52:57.813Z,12.04
2019-03-21T10:53:57.828Z,11.98
2019-03-21T10:54:57.814Z,12.02
2019-03-21T10:55:57.780Z,12.04
2019-03-21T10:56:57.777Z,12.01
2019-03-21T10:57:57.749Z,11.98
2019-03-21T10:58:57.743Z,12.05
2019-03-21T10:59:57.729Z,12.04
2019-03-21T11:00:57.764Z,12.01
2019-03-21T11:02:06.911Z,11.96
2019-03-21T11:02:58.687Z,11.94
2019-03-21T11:03:57.683Z,11.95
2019-03-21T11:04:57.679Z,11.96
2019-03-21T11:05:57.685Z,11.96
2019-03-21T11:06:57.654Z,11.98
2019-03-21T11:07:57.649Z,11.90
2019-03-21T11:08:57.619Z,11.86
2019-03-21T11:09:57.615Z,11.90
2019-03-21T11:10:57.617Z,11.91
2019-03-21T11:11:57.708Z,11.94
2019-03-21T11:12:57.591Z,11.96
2019-03-21T11:13:57.591Z,12.01
2019-03-21T11:14:57.550Z,12.05
2019-03-21T11:15:57.545Z,12.05
2019-03-21T11:16:57.562Z,12.09
2019-03-21T11:17:57.515Z,12.04
2019-03-21T11:18:57.542Z,12.01
2019-03-21T11:19:57.500Z,12.10
2019-03-21T11:20:57.487Z,12.21
2019-03-21T11:22:05.804Z,12.13
2019-03-21T11:22:58.471Z,12.21
2019-03-21T11:23:57.547Z,12.09
2019-03-21T11:24:57.459Z,12.12
2019-03-21T11:25:57.447Z,12.16
2019-03-21T11:26:57.470Z,12.09
2019-03-21T11:27:57.420Z,11.99
2019-03-21T11:28:57.400Z,11.96
2019-03-21T11:29:57.402Z,11.98
2019-03-21T11:30:57.612Z,12.09
2019-03-21T11:31:58.138Z,12.07
2019-03-21T11:32:57.373Z,12.12
2019-03-21T11:33:57.440Z,12.23
2019-03-21T11:34:57.400Z,12.32
2019-03-21T11:35:57.344Z,12.29
2019-03-21T11:36:57.315Z,12.24
2019-03-21T11:37:57.426Z,12.10
2019-03-21T11:38:57.287Z,12.07
2019-03-21T11:39:57.317Z,12.17
2019-03-21T11:40:57.271Z,12.17
2019-03-21T11:41:57.278Z,12.17
2019-03-21T11:42:57.273Z,12.14
2019-03-21T11:43:57.244Z,12.16
2019-03-21T11:44:57.232Z,12.20
2019-03-21T11:45:57.236Z,12.21
2019-03-21T11:46:57.257Z,12.19
2019-03-21T11:47:59.548Z,12.21
2019-03-21T11:48:57.182Z,12.16
2019-03-21T11:49:57.170Z,12.23
2019-03-21T11:50:57.210Z,12.17
2019-03-21T11:51:57.148Z,12.14
2019-03-21T11:52:57.161Z,12.17
2019-03-21T11:53:57.119Z,12.19
2019-03-21T11:54:57.106Z,12.10
2019-03-21T11:55:57.203Z,12.17
2019-03-21T11:56:57.087Z,12.23
2019-03-21T11:57:57.089Z,12.28
2019-03-21T11:58:57.058Z,12.27
2019-03-21T11:59:57.127Z,12.24
2019-03-21T12:00:57.029Z,12.24
2019-03-21T12:01:57.023Z,12.27
2019-03-21T12:02:57.026Z,12.45
2019-03-21T12:03:57.003Z,12.42
2019-03-21T12:04:56.994Z,12.29
2019-03-21T12:05:56.975Z,12.27
2019-03-21T12:06:56.961Z,12.24
2019-03-21T12:07:56.975Z,12.41
2019-03-21T12:08:56.953Z,12.38
2019-03-21T12:09:56.943Z,12.38
2019-03-21T12:10:56.948Z,12.39
2019-03-21T12:11:56.915Z,12.20
2019-03-21T12:12:56.920Z,12.19
2019-03-21T12:13:56.886Z,12.20
2019-03-21T12:14:56.886Z,12.12
2019-03-21T12:15:56.873Z,12.10
2019-03-21T12:16:56.855Z,12.10
2019-03-21T12:17:56.872Z,12.09
2019-03-21T12:18:56.880Z,12.20
2019-03-21T12:19:56.825Z,12.21
2019-03-21T12:20:56.829Z,12.24
2019-03-21T12:21:56.817Z,12.41
2019-03-21T12:22:56.882Z,12.28
2019-03-21T12:23:56.790Z,12.27
2019-03-21T12:24:56.765Z,12.23
2019-03-21T12:25:56.786Z,12.16
2019-03-21T12:26:56.745Z,12.20
2019-03-21T12:27:56.753Z,12.27
2019-03-21T12:28:56.717Z,12.21
2019-03-21T12:29:56.717Z,12.37
2019-03-21T12:30:56.695Z,12.41
2019-03-21T12:31:56.696Z,12.53
2019-03-21T12:32:56.710Z,12.38
2019-03-21T12:33:59.150Z,12.41
2019-03-21T12:34:56.655Z,12.27
2019-03-21T12:35:56.642Z,12.38
2019-03-21T12:36:56.636Z,12.21
2019-03-21T12:37:56.641Z,12.39
2019-03-21T12:38:56.617Z,12.41
2019-03-21T12:39:56.612Z,12.23
2019-03-21T12:40:56.587Z,12.27
2019-03-21T12:41:56.567Z,12.39
2019-03-21T12:42:56.579Z,12.47
2019-03-21T12:43:56.556Z,12.29
2019-03-21T12:44:56.549Z,12.39
2019-03-21T12:45:56.525Z,12.28
2019-03-21T12:46:56.510Z,12.41
2019-03-21T12:47:56.521Z,12.41
2019-03-21T12:48:56.573Z,12.39
2019-03-21T12:49:56.479Z,12.46
2019-03-21T12:50:56.475Z,12.46
2019-03-21T12:51:56.474Z,12.50